sensor_id;sensor_type;location;lat;lon;timestamp;P1;durP1;ratioP1;P2;durP2;ratioP2
70556;SDS011;58107;51.034;3.726;2022-09-14T00:01:23;13.03;;;6.78;;
70556;SDS011;58107;51.034;3.726;2022-09-14T00:03:58;16.00;;;8.20;;
70556;SDS011;58107;51.034;3.726;2022-09-14T00:06:24;19.55;;;9.13;;
70556;SDS011;58107;51.034;3.726;2022-09-14T00:08:53;15.30;;;8.60;;
70556;SDS011;58107;51.034;3.726;2022-09-14T00:11:23;22.22;;;9.58;;
70556;SDS011;58107;51.034;3.726;2022-09-14T00:13:52;18.12;;;9.70;;
70556;SDS011;58107;51.034;3.726;2022-09-14T00:16:24;19.12;;;10.00;;
70556;SDS011;58107;51.034;3.726;2022-09-14T00:18:56;20.15;;;10.63;;
70556;SDS011;58107;51.034;3.726;2022-09-14T00:21:26;24.82;;;11.05;;
70556;SDS011;58107;51.034;3.726;2022-09-14T00:23:54;16.27;;;10.68;;
70556;SDS011;58107;51.034;3.726;2022-09-14T00:26:21;21.60;;;10.78;;
70556;SDS011;58107;51.034;3.726;2022-09-14T00:28:56;20.08;;;11.08;;
70556;SDS011;58107;51.034;3.726;2022-09-14T00:31:21;22.20;;;10.28;;
70556;SDS011;58107;51.034;3.726;2022-09-14T00:33:50;24.97;;;11.50;;
70556;SDS011;58107;51.034;3.726;2022-09-14T00:36:20;19.77;;;10.63;;
70556;SDS011;58107;51.034;3.726;2022-09-14T00:38:49;21.77;;;11.97;;
70556;SDS011;58107;51.034;3.726;2022-09-14T00:41:19;18.48;;;10.32;;
70556;SDS011;58107;51.034;3.726;2022-09-14T00:43:59;20.75;;;10.25;;
70556;SDS011;58107;51.034;3.726;2022-09-14T00:46:35;22.73;;;10.60;;
70556;SDS011;58107;51.034;3.726;2022-09-14T00:49:07;21.00;;;10.75;;
70556;SDS011;58107;51.034;3.726;2022-09-14T00:51:45;17.20;;;10.82;;
70556;SDS011;58107;51.034;3.726;2022-09-14T00:54:15;20.62;;;10.55;;
70556;SDS011;58107;51.034;3.726;2022-09-14T00:56:44;17.60;;;10.98;;
70556;SDS011;58107;51.034;3.726;2022-09-14T00:59:15;16.23;;;10.38;;
70556;SDS011;58107;51.034;3.726;2022-09-14T01:01:44;25.50;;;11.15;;
70556;SDS011;58107;51.034;3.726;2022-09-14T01:04:12;16.73;;;10.08;;
70556;SDS011;58107;51.034;3.726;2022-09-14T01:07:00;22.32;;;11.10;;
70556;SDS011;58107;51.034;3.726;2022-09-14T01:09:27;20.68;;;11.12;;
70556;SDS011;58107;51.034;3.726;2022-09-14T01:18:10;19.23;;;11.18;;
70556;SDS011;58107;51.034;3.726;2022-09-14T01:20:13;20.12;;;10.85;;
70556;SDS011;58107;51.034;3.726;2022-09-14T01:28:25;19.45;;;10.08;;
70556;SDS011;58107;51.034;3.726;2022-09-14T01:30:54;17.98;;;10.50;;
70556;SDS011;58107;51.034;3.726;2022-09-14T01:33:26;20.00;;;11.18;;
70556;SDS011;58107;51.034;3.726;2022-09-14T01:35:56;22.15;;;11.88;;
70556;SDS011;58107;51.034;3.726;2022-09-14T01:38:47;23.95;;;11.55;;
70556;SDS011;58107;51.034;3.726;2022-09-14T01:41:13;23.07;;;11.63;;
70556;SDS011;58107;51.034;3.726;2022-09-14T01:43:44;21.75;;;12.15;;
70556;SDS011;58107;51.034;3.726;2022-09-14T01:46:15;25.17;;;11.60;;
70556;SDS011;58107;51.034;3.726;2022-09-14T01:49:02;22.37;;;11.83;;
70556;SDS011;58107;51.034;3.726;2022-09-14T01:51:49;15.10;;;11.08;;
70556;SDS011;58107;51.034;3.726;2022-09-14T01:54:24;22.05;;;10.75;;
70556;SDS011;58107;51.034;3.726;2022-09-14T01:56:53;19.15;;;11.55;;
70556;SDS011;58107;51.034;3.726;2022-09-14T01:59:26;23.02;;;11.40;;
70556;SDS011;58107;51.034;3.726;2022-09-14T02:01:58;22.48;;;11.90;;
70556;SDS011;58107;51.034;3.726;2022-09-14T02:04:40;19.07;;;11.45;;
70556;SDS011;58107;51.034;3.726;2022-09-14T02:07:16;18.70;;;10.85;;
70556;SDS011;58107;51.034;3.726;2022-09-14T02:09:45;18.80;;;11.22;;
70556;SDS011;58107;51.034;3.726;2022-09-14T02:12:14;18.90;;;11.55;;
70556;SDS011;58107;51.034;3.726;2022-09-14T02:14:43;25.40;;;11.57;;
70556;SDS011;58107;51.034;3.726;2022-09-14T02:17:12;20.57;;;12.75;;
70556;SDS011;58107;51.034;3.726;2022-09-14T02:19:43;19.80;;;12.18;;
70556;SDS011;58107;51.034;3.726;2022-09-14T02:22:11;22.32;;;13.25;;
70556;SDS011;58107;51.034;3.726;2022-09-14T02:24:39;22.98;;;11.95;;
70556;SDS011;58107;51.034;3.726;2022-09-14T02:27:07;25.45;;;13.05;;
70556;SDS011;58107;51.034;3.726;2022-09-14T02:29:35;22.25;;;12.75;;
70556;SDS011;58107;51.034;3.726;2022-09-14T02:32:06;20.97;;;13.32;;
70556;SDS011;58107;51.034;3.726;2022-09-14T02:34:40;23.50;;;12.15;;
70556;SDS011;58107;51.034;3.726;2022-09-14T02:37:12;26.37;;;13.10;;
70556;SDS011;58107;51.034;3.726;2022-09-14T02:42:38;23.38;;;13.48;;
70556;SDS011;58107;51.034;3.726;2022-09-14T02:45:28;23.42;;;13.72;;
70556;SDS011;58107;51.034;3.726;2022-09-14T02:50:45;23.83;;;14.40;;
70556;SDS011;58107;51.034;3.726;2022-09-14T02:56:00;23.00;;;14.28;;
70556;SDS011;58107;51.034;3.726;2022-09-14T02:58:36;23.52;;;14.05;;
70556;SDS011;58107;51.034;3.726;2022-09-14T03:01:06;24.47;;;14.15;;
70556;SDS011;58107;51.034;3.726;2022-09-14T03:03:37;24.63;;;14.83;;
70556;SDS011;58107;51.034;3.726;2022-09-14T03:06:05;28.07;;;14.47;;
70556;SDS011;58107;51.034;3.726;2022-09-14T03:08:33;25.00;;;14.80;;
70556;SDS011;58107;51.034;3.726;2022-09-14T03:11:01;26.07;;;16.37;;
70556;SDS011;58107;51.034;3.726;2022-09-14T03:13:29;31.55;;;16.20;;
70556;SDS011;58107;51.034;3.726;2022-09-14T03:16:03;26.15;;;15.43;;
70556;SDS011;58107;51.034;3.726;2022-09-14T03:18:32;25.77;;;15.65;;
70556;SDS011;58107;51.034;3.726;2022-09-14T03:21:02;25.63;;;15.70;;
70556;SDS011;58107;51.034;3.726;2022-09-14T03:25:59;24.10;;;16.57;;
70556;SDS011;58107;51.034;3.726;2022-09-14T03:28:27;26.75;;;16.75;;
70556;SDS011;58107;51.034;3.726;2022-09-14T03:30:59;22.58;;;16.85;;
70556;SDS011;58107;51.034;3.726;2022-09-14T03:33:28;24.70;;;16.73;;
70556;SDS011;58107;51.034;3.726;2022-09-14T03:35:56;26.10;;;16.48;;
70556;SDS011;58107;51.034;3.726;2022-09-14T03:38:24;26.42;;;16.05;;
70556;SDS011;58107;51.034;3.726;2022-09-14T03:40:53;23.42;;;15.13;;
70556;SDS011;58107;51.034;3.726;2022-09-14T03:43:25;19.50;;;14.78;;
70556;SDS011;58107;51.034;3.726;2022-09-14T03:45:55;23.80;;;14.93;;
70556;SDS011;58107;51.034;3.726;2022-09-14T03:48:23;26.45;;;15.28;;
70556;SDS011;58107;51.034;3.726;2022-09-14T03:50:51;30.00;;;15.98;;
70556;SDS011;58107;51.034;3.726;2022-09-14T03:53:19;20.82;;;14.63;;
70556;SDS011;58107;51.034;3.726;2022-09-14T03:55:46;24.52;;;13.98;;
70556;SDS011;58107;51.034;3.726;2022-09-14T03:58:14;20.62;;;13.98;;
70556;SDS011;58107;51.034;3.726;2022-09-14T04:00:42;23.92;;;15.40;;
70556;SDS011;58107;51.034;3.726;2022-09-14T04:03:09;21.12;;;13.93;;
70556;SDS011;58107;51.034;3.726;2022-09-14T04:05:37;21.17;;;13.80;;
70556;SDS011;58107;51.034;3.726;2022-09-14T04:08:05;21.62;;;13.65;;
70556;SDS011;58107;51.034;3.726;2022-09-14T04:10:33;19.35;;;13.48;;
70556;SDS011;58107;51.034;3.726;2022-09-14T04:13:00;23.50;;;14.65;;
70556;SDS011;58107;51.034;3.726;2022-09-14T04:15:30;23.47;;;14.80;;
70556;SDS011;58107;51.034;3.726;2022-09-14T04:17:57;21.95;;;14.45;;
70556;SDS011;58107;51.034;3.726;2022-09-14T04:20:26;21.15;;;14.45;;
70556;SDS011;58107;51.034;3.726;2022-09-14T04:22:54;23.47;;;14.68;;
70556;SDS011;58107;51.034;3.726;2022-09-14T04:25:21;22.93;;;14.85;;
70556;SDS011;58107;51.034;3.726;2022-09-14T04:27:49;19.45;;;14.70;;
70556;SDS011;58107;51.034;3.726;2022-09-14T04:32:46;25.60;;;16.70;;
70556;SDS011;58107;51.034;3.726;2022-09-14T04:35:14;29.05;;;19.80;;
70556;SDS011;58107;51.034;3.726;2022-09-14T04:37:42;29.40;;;19.37;;
70556;SDS011;58107;51.034;3.726;2022-09-14T04:40:10;28.47;;;20.45;;
70556;SDS011;58107;51.034;3.726;2022-09-14T04:42:37;26.12;;;19.60;;
70556;SDS011;58107;51.034;3.726;2022-09-14T04:45:06;31.62;;;22.90;;
70556;SDS011;58107;51.034;3.726;2022-09-14T04:47:34;30.12;;;20.55;;
70556;SDS011;58107;51.034;3.726;2022-09-14T04:50:02;27.30;;;21.62;;
70556;SDS011;58107;51.034;3.726;2022-09-14T04:52:30;25.55;;;19.80;;
70556;SDS011;58107;51.034;3.726;2022-09-14T04:54:58;28.77;;;22.13;;
70556;SDS011;58107;51.034;3.726;2022-09-14T04:57:26;33.60;;;24.27;;
70556;SDS011;58107;51.034;3.726;2022-09-14T04:59:54;31.10;;;24.18;;
70556;SDS011;58107;51.034;3.726;2022-09-14T05:02:22;30.08;;;23.75;;
70556;SDS011;58107;51.034;3.726;2022-09-14T05:04:51;33.78;;;24.18;;
70556;SDS011;58107;51.034;3.726;2022-09-14T05:07:19;33.75;;;24.60;;
70556;SDS011;58107;51.034;3.726;2022-09-14T05:09:47;33.90;;;25.90;;
70556;SDS011;58107;51.034;3.726;2022-09-14T05:12:15;34.63;;;27.37;;
70556;SDS011;58107;51.034;3.726;2022-09-14T05:14:42;34.78;;;27.37;;
70556;SDS011;58107;51.034;3.726;2022-09-14T05:17:11;33.80;;;27.30;;
70556;SDS011;58107;51.034;3.726;2022-09-14T05:19:39;38.28;;;29.10;;
70556;SDS011;58107;51.034;3.726;2022-09-14T05:22:07;39.80;;;29.87;;
70556;SDS011;58107;51.034;3.726;2022-09-14T05:24:35;37.03;;;27.27;;
70556;SDS011;58107;51.034;3.726;2022-09-14T05:27:03;34.38;;;27.37;;
70556;SDS011;58107;51.034;3.726;2022-09-14T05:29:32;35.78;;;26.97;;
70556;SDS011;58107;51.034;3.726;2022-09-14T05:32:01;32.80;;;27.07;;
70556;SDS011;58107;51.034;3.726;2022-09-14T05:34:29;36.38;;;28.57;;
70556;SDS011;58107;51.034;3.726;2022-09-14T05:36:56;36.88;;;28.17;;
70556;SDS011;58107;51.034;3.726;2022-09-14T05:39:24;39.88;;;29.87;;
70556;SDS011;58107;51.034;3.726;2022-09-14T05:41:52;41.30;;;30.25;;
70556;SDS011;58107;51.034;3.726;2022-09-14T05:44:20;39.27;;;28.57;;
70556;SDS011;58107;51.034;3.726;2022-09-14T05:46:47;43.50;;;27.00;;
70556;SDS011;58107;51.034;3.726;2022-09-14T05:49:15;36.38;;;26.20;;
70556;SDS011;58107;51.034;3.726;2022-09-14T05:51:46;32.13;;;24.85;;
70556;SDS011;58107;51.034;3.726;2022-09-14T05:54:14;29.42;;;23.67;;
70556;SDS011;58107;51.034;3.726;2022-09-14T05:56:42;34.18;;;25.12;;
70556;SDS011;58107;51.034;3.726;2022-09-14T05:59:09;34.85;;;24.32;;
70556;SDS011;58107;51.034;3.726;2022-09-14T06:01:37;33.02;;;25.65;;
70556;SDS011;58107;51.034;3.726;2022-09-14T06:04:05;44.67;;;27.93;;
70556;SDS011;58107;51.034;3.726;2022-09-14T06:06:35;35.68;;;26.52;;
70556;SDS011;58107;51.034;3.726;2022-09-14T06:09:02;38.88;;;26.85;;
70556;SDS011;58107;51.034;3.726;2022-09-14T06:11:31;36.23;;;26.35;;
70556;SDS011;58107;51.034;3.726;2022-09-14T06:14:02;32.65;;;23.45;;
70556;SDS011;58107;51.034;3.726;2022-09-14T06:16:30;35.20;;;24.15;;
70556;SDS011;58107;51.034;3.726;2022-09-14T06:18:58;37.33;;;24.92;;
70556;SDS011;58107;51.034;3.726;2022-09-14T06:21:32;31.42;;;23.35;;
70556;SDS011;58107;51.034;3.726;2022-09-14T06:23:57;34.60;;;24.47;;
70556;SDS011;58107;51.034;3.726;2022-09-14T06:26:25;33.53;;;23.60;;
70556;SDS011;58107;51.034;3.726;2022-09-14T06:28:53;30.25;;;23.00;;
70556;SDS011;58107;51.034;3.726;2022-09-14T06:31:21;29.48;;;22.87;;
70556;SDS011;58107;51.034;3.726;2022-09-14T06:33:50;29.98;;;21.50;;
70556;SDS011;58107;51.034;3.726;2022-09-14T06:36:20;27.52;;;21.68;;
70556;SDS011;58107;51.034;3.726;2022-09-14T06:38:49;27.30;;;21.23;;
70556;SDS011;58107;51.034;3.726;2022-09-14T06:41:18;26.73;;;20.85;;
70556;SDS011;58107;51.034;3.726;2022-09-14T06:43:52;28.60;;;22.98;;
70556;SDS011;58107;51.034;3.726;2022-09-14T06:46:23;28.20;;;23.00;;
70556;SDS011;58107;51.034;3.726;2022-09-14T06:48:57;32.60;;;25.50;;
70556;SDS011;58107;51.034;3.726;2022-09-14T06:51:28;35.83;;;24.45;;
70556;SDS011;58107;51.034;3.726;2022-09-14T06:53:57;30.25;;;23.92;;
70556;SDS011;58107;51.034;3.726;2022-09-14T06:56:27;31.77;;;23.97;;
70556;SDS011;58107;51.034;3.726;2022-09-14T06:58:56;28.23;;;23.18;;
70556;SDS011;58107;51.034;3.726;2022-09-14T07:01:25;29.07;;;24.12;;
70556;SDS011;58107;51.034;3.726;2022-09-14T07:06:24;31.85;;;21.60;;
70556;SDS011;58107;51.034;3.726;2022-09-14T07:08:53;27.37;;;21.80;;
70556;SDS011;58107;51.034;3.726;2022-09-14T07:11:22;25.43;;;21.57;;
70556;SDS011;58107;51.034;3.726;2022-09-14T07:13:52;26.23;;;21.95;;
70556;SDS011;58107;51.034;3.726;2022-09-14T07:16:22;27.30;;;21.85;;
70556;SDS011;58107;51.034;3.726;2022-09-14T07:19:01;27.25;;;21.85;;
70556;SDS011;58107;51.034;3.726;2022-09-14T07:21:30;24.05;;;21.23;;
70556;SDS011;58107;51.034;3.726;2022-09-14T07:23:59;28.90;;;21.07;;
70556;SDS011;58107;51.034;3.726;2022-09-14T07:26:28;30.00;;;22.25;;
70556;SDS011;58107;51.034;3.726;2022-09-14T07:28:59;29.25;;;22.10;;
70556;SDS011;58107;51.034;3.726;2022-09-14T07:31:31;31.33;;;22.10;;
70556;SDS011;58107;51.034;3.726;2022-09-14T07:34:03;27.48;;;22.07;;
70556;SDS011;58107;51.034;3.726;2022-09-14T07:36:33;26.55;;;22.35;;
70556;SDS011;58107;51.034;3.726;2022-09-14T07:39:03;28.12;;;21.62;;
70556;SDS011;58107;51.034;3.726;2022-09-14T07:41:32;28.07;;;21.70;;
70556;SDS011;58107;51.034;3.726;2022-09-14T07:44:01;25.95;;;21.30;;
70556;SDS011;58107;51.034;3.726;2022-09-14T07:46:34;29.40;;;22.95;;
70556;SDS011;58107;51.034;3.726;2022-09-14T07:49:05;29.02;;;22.52;;
70556;SDS011;58107;51.034;3.726;2022-09-14T07:51:34;28.12;;;22.48;;
70556;SDS011;58107;51.034;3.726;2022-09-14T07:54:03;28.73;;;22.58;;
70556;SDS011;58107;51.034;3.726;2022-09-14T07:56:31;30.30;;;21.55;;
70556;SDS011;58107;51.034;3.726;2022-09-14T07:59:00;25.43;;;20.88;;
70556;SDS011;58107;51.034;3.726;2022-09-14T08:01:28;26.80;;;21.27;;
70556;SDS011;58107;51.034;3.726;2022-09-14T08:03:59;26.48;;;22.20;;
70556;SDS011;58107;51.034;3.726;2022-09-14T08:06:29;28.52;;;23.20;;
70556;SDS011;58107;51.034;3.726;2022-09-14T08:08:57;26.80;;;21.52;;
70556;SDS011;58107;51.034;3.726;2022-09-14T08:14:01;24.72;;;21.60;;
70556;SDS011;58107;51.034;3.726;2022-09-14T08:16:26;29.72;;;22.98;;
70556;SDS011;58107;51.034;3.726;2022-09-14T08:19:01;28.75;;;22.50;;
70556;SDS011;58107;51.034;3.726;2022-09-14T08:21:27;30.50;;;24.05;;
70556;SDS011;58107;51.034;3.726;2022-09-14T08:23:57;35.58;;;27.60;;
70556;SDS011;58107;51.034;3.726;2022-09-14T08:26:27;33.78;;;26.17;;
70556;SDS011;58107;51.034;3.726;2022-09-14T08:28:56;37.13;;;29.30;;
70556;SDS011;58107;51.034;3.726;2022-09-14T08:31:26;38.15;;;28.17;;
70556;SDS011;58107;51.034;3.726;2022-09-14T08:36:25;37.65;;;28.73;;
70556;SDS011;58107;51.034;3.726;2022-09-14T08:38:56;36.23;;;27.25;;
70556;SDS011;58107;51.034;3.726;2022-09-14T08:41:27;39.58;;;29.12;;
70556;SDS011;58107;51.034;3.726;2022-09-14T08:44:02;32.73;;;26.45;;
70556;SDS011;58107;51.034;3.726;2022-09-14T08:46:59;35.92;;;26.57;;
70556;SDS011;58107;51.034;3.726;2022-09-14T08:49:45;30.52;;;25.15;;
70556;SDS011;58107;51.034;3.726;2022-09-14T08:52:35;28.85;;;24.67;;
70556;SDS011;58107;51.034;3.726;2022-09-14T09:00:23;23.85;;;20.57;;
70556;SDS011;58107;51.034;3.726;2022-09-14T09:03:06;23.83;;;20.12;;
70556;SDS011;58107;51.034;3.726;2022-09-14T09:11:10;21.97;;;19.15;;
70556;SDS011;58107;51.034;3.726;2022-09-14T09:13:39;24.05;;;19.98;;
70556;SDS011;58107;51.034;3.726;2022-09-14T09:16:10;22.07;;;19.70;;
70556;SDS011;58107;51.034;3.726;2022-09-14T09:21:18;22.52;;;17.98;;
70556;SDS011;58107;51.034;3.726;2022-09-14T09:23:46;20.43;;;17.55;;
70556;SDS011;58107;51.034;3.726;2022-09-14T09:26:28;18.90;;;16.90;;
70556;SDS011;58107;51.034;3.726;2022-09-14T09:28:58;18.40;;;16.48;;
70556;SDS011;58107;51.034;3.726;2022-09-14T09:31:31;18.17;;;15.98;;
70556;SDS011;58107;51.034;3.726;2022-09-14T09:34:01;19.15;;;16.37;;
70556;SDS011;58107;51.034;3.726;2022-09-14T09:36:38;19.50;;;17.50;;
70556;SDS011;58107;51.034;3.726;2022-09-14T09:39:02;19.60;;;17.60;;
70556;SDS011;58107;51.034;3.726;2022-09-14T09:41:34;20.12;;;17.90;;
70556;SDS011;58107;51.034;3.726;2022-09-14T09:44:05;21.95;;;18.62;;
70556;SDS011;58107;51.034;3.726;2022-09-14T09:46:47;19.52;;;16.12;;
70556;SDS011;58107;51.034;3.726;2022-09-14T09:49:29;18.42;;;16.45;;
70556;SDS011;58107;51.034;3.726;2022-09-14T09:51:53;17.57;;;15.58;;
70556;SDS011;58107;51.034;3.726;2022-09-14T09:54:26;18.17;;;16.20;;
70556;SDS011;58107;51.034;3.726;2022-09-14T09:56:56;17.45;;;15.65;;
70556;SDS011;58107;51.034;3.726;2022-09-14T09:59:39;16.27;;;14.58;;
70556;SDS011;58107;51.034;3.726;2022-09-14T10:04:59;15.65;;;14.03;;
70556;SDS011;58107;51.034;3.726;2022-09-14T10:07:29;13.98;;;12.68;;
70556;SDS011;58107;51.034;3.726;2022-09-14T10:10:00;15.65;;;13.95;;
70556;SDS011;58107;51.034;3.726;2022-09-14T10:12:39;13.65;;;12.25;;
70556;SDS011;58107;51.034;3.726;2022-09-14T10:15:25;12.65;;;11.43;;
70556;SDS011;58107;51.034;3.726;2022-09-14T10:18:05;14.33;;;12.90;;
70556;SDS011;58107;51.034;3.726;2022-09-14T10:20:39;14.55;;;12.50;;
70556;SDS011;58107;51.034;3.726;2022-09-14T10:23:26;13.98;;;12.43;;
70556;SDS011;58107;51.034;3.726;2022-09-14T10:25:52;15.23;;;13.72;;
70556;SDS011;58107;51.034;3.726;2022-09-14T10:28:22;14.07;;;12.68;;
70556;SDS011;58107;51.034;3.726;2022-09-14T10:33:26;13.03;;;11.45;;
70556;SDS011;58107;51.034;3.726;2022-09-14T10:38:51;9.15;;;8.28;;
70556;SDS011;58107;51.034;3.726;2022-09-14T10:41:33;9.45;;;8.23;;
70556;SDS011;58107;51.034;3.726;2022-09-14T10:58:15;11.65;;;10.35;;
70556;SDS011;58107;51.034;3.726;2022-09-14T11:00:55;11.73;;;10.63;;
70556;SDS011;58107;51.034;3.726;2022-09-14T11:03:28;11.57;;;9.80;;
70556;SDS011;58107;51.034;3.726;2022-09-14T11:06:07;12.45;;;10.58;;
70556;SDS011;58107;51.034;3.726;2022-09-14T11:11:17;12.37;;;11.03;;
70556;SDS011;58107;51.034;3.726;2022-09-14T11:22:14;15.13;;;12.28;;
70556;SDS011;58107;51.034;3.726;2022-09-14T11:25:07;11.68;;;10.43;;
70556;SDS011;58107;51.034;3.726;2022-09-14T11:27:24;11.03;;;9.33;;
70556;SDS011;58107;51.034;3.726;2022-09-14T11:29:54;12.18;;;10.88;;
70556;SDS011;58107;51.034;3.726;2022-09-14T11:32:28;17.85;;;10.82;;
70556;SDS011;58107;51.034;3.726;2022-09-14T11:35:18;14.07;;;10.13;;
70556;SDS011;58107;51.034;3.726;2022-09-14T11:38:02;11.63;;;10.38;;
70556;SDS011;58107;51.034;3.726;2022-09-14T11:40:28;11.45;;;9.93;;
70556;SDS011;58107;51.034;3.726;2022-09-14T11:43:28;15.93;;;10.78;;
70556;SDS011;58107;51.034;3.726;2022-09-14T11:48:59;13.90;;;10.85;;
70556;SDS011;58107;51.034;3.726;2022-09-14T11:51:35;14.53;;;11.78;;
70556;SDS011;58107;51.034;3.726;2022-09-14T11:54:21;15.98;;;12.33;;
70556;SDS011;58107;51.034;3.726;2022-09-14T11:56:53;15.90;;;12.98;;
70556;SDS011;58107;51.034;3.726;2022-09-14T11:59:34;15.75;;;13.10;;
70556;SDS011;58107;51.034;3.726;2022-09-14T12:10:29;14.65;;;13.05;;
70556;SDS011;58107;51.034;3.726;2022-09-14T12:15:36;16.73;;;13.88;;
70556;SDS011;58107;51.034;3.726;2022-09-14T12:28:28;17.55;;;15.70;;
70556;SDS011;58107;51.034;3.726;2022-09-14T12:36:04;21.02;;;18.82;;
70556;SDS011;58107;51.034;3.726;2022-09-14T12:43:51;25.12;;;22.42;;
70556;SDS011;58107;51.034;3.726;2022-09-14T12:59:36;25.05;;;22.35;;
70556;SDS011;58107;51.034;3.726;2022-09-14T13:05:05;29.70;;;26.80;;
70556;SDS011;58107;51.034;3.726;2022-09-14T13:07:39;30.65;;;27.25;;
70556;SDS011;58107;51.034;3.726;2022-09-14T13:10:16;30.48;;;27.30;;
70556;SDS011;58107;51.034;3.726;2022-09-14T13:12:47;29.35;;;26.23;;
70556;SDS011;58107;51.034;3.726;2022-09-14T13:17:56;24.00;;;21.45;;
70556;SDS011;58107;51.034;3.726;2022-09-14T13:20:29;23.50;;;21.02;;
70556;SDS011;58107;51.034;3.726;2022-09-14T13:22:58;22.35;;;19.15;;
70556;SDS011;58107;51.034;3.726;2022-09-14T13:25:30;24.30;;;21.62;;
70556;SDS011;58107;51.034;3.726;2022-09-14T13:28:00;25.20;;;21.02;;
70556;SDS011;58107;51.034;3.726;2022-09-14T13:30:30;24.75;;;22.07;;
70556;SDS011;58107;51.034;3.726;2022-09-14T13:33:00;22.65;;;20.25;;
70556;SDS011;58107;51.034;3.726;2022-09-14T13:35:34;22.02;;;19.52;;
70556;SDS011;58107;51.034;3.726;2022-09-14T13:38:07;21.45;;;19.15;;
70556;SDS011;58107;51.034;3.726;2022-09-14T13:40:36;23.30;;;20.88;;
70556;SDS011;58107;51.034;3.726;2022-09-14T13:43:04;21.75;;;19.48;;
70556;SDS011;58107;51.034;3.726;2022-09-14T13:45:32;23.07;;;20.80;;
70556;SDS011;58107;51.034;3.726;2022-09-14T13:48:02;21.67;;;19.37;;
70556;SDS011;58107;51.034;3.726;2022-09-14T13:52:59;21.62;;;18.70;;
70556;SDS011;58107;51.034;3.726;2022-09-14T13:55:28;19.60;;;17.50;;
70556;SDS011;58107;51.034;3.726;2022-09-14T13:58:04;16.10;;;14.20;;
70556;SDS011;58107;51.034;3.726;2022-09-14T14:00:46;13.93;;;11.80;;
70556;SDS011;58107;51.034;3.726;2022-09-14T14:05:59;12.55;;;10.38;;
70556;SDS011;58107;51.034;3.726;2022-09-14T14:11:34;14.15;;;11.78;;
70556;SDS011;58107;51.034;3.726;2022-09-14T14:19:53;15.85;;;12.20;;
70556;SDS011;58107;51.034;3.726;2022-09-14T14:22:27;14.18;;;12.58;;
70556;SDS011;58107;51.034;3.726;2022-09-14T14:24:57;12.85;;;11.45;;
70556;SDS011;58107;51.034;3.726;2022-09-14T14:29:56;19.67;;;16.80;;
70556;SDS011;58107;51.034;3.726;2022-09-14T14:32:26;17.80;;;15.75;;
70556;SDS011;58107;51.034;3.726;2022-09-14T14:34:59;21.27;;;18.10;;
70556;SDS011;58107;51.034;3.726;2022-09-14T14:37:27;20.25;;;17.52;;
70556;SDS011;58107;51.034;3.726;2022-09-14T14:39:54;22.48;;;19.30;;
70556;SDS011;58107;51.034;3.726;2022-09-14T14:42:22;23.67;;;18.02;;
70556;SDS011;58107;51.034;3.726;2022-09-14T14:44:50;21.87;;;17.67;;
70556;SDS011;58107;51.034;3.726;2022-09-14T14:47:18;22.45;;;17.27;;
70556;SDS011;58107;51.034;3.726;2022-09-14T14:49:47;22.50;;;16.65;;
70556;SDS011;58107;51.034;3.726;2022-09-14T14:52:15;22.13;;;15.55;;
70556;SDS011;58107;51.034;3.726;2022-09-14T14:54:43;17.00;;;13.30;;
70556;SDS011;58107;51.034;3.726;2022-09-14T14:57:10;16.00;;;11.90;;
70556;SDS011;58107;51.034;3.726;2022-09-14T14:59:38;16.32;;;9.98;;
70556;SDS011;58107;51.034;3.726;2022-09-14T15:02:07;12.28;;;9.05;;
70556;SDS011;58107;51.034;3.726;2022-09-14T15:04:35;12.93;;;9.10;;
70556;SDS011;58107;51.034;3.726;2022-09-14T15:07:03;13.22;;;10.90;;
70556;SDS011;58107;51.034;3.726;2022-09-14T15:09:30;14.35;;;11.68;;
70556;SDS011;58107;51.034;3.726;2022-09-14T15:11:58;16.55;;;13.35;;
70556;SDS011;58107;51.034;3.726;2022-09-14T15:14:26;12.98;;;11.60;;
70556;SDS011;58107;51.034;3.726;2022-09-14T15:16:54;12.07;;;10.78;;
70556;SDS011;58107;51.034;3.726;2022-09-14T15:21:51;14.30;;;10.32;;
70556;SDS011;58107;51.034;3.726;2022-09-14T15:24:19;14.75;;;11.08;;
70556;SDS011;58107;51.034;3.726;2022-09-14T15:26:47;15.38;;;11.57;;
70556;SDS011;58107;51.034;3.726;2022-09-14T15:29:14;13.80;;;10.13;;
70556;SDS011;58107;51.034;3.726;2022-09-14T15:31:44;12.47;;;10.15;;
70556;SDS011;58107;51.034;3.726;2022-09-14T15:34:12;11.43;;;9.50;;
70556;SDS011;58107;51.034;3.726;2022-09-14T15:36:41;10.25;;;9.05;;
70556;SDS011;58107;51.034;3.726;2022-09-14T15:39:12;13.22;;;9.70;;
70556;SDS011;58107;51.034;3.726;2022-09-14T15:41:40;12.47;;;9.18;;
70556;SDS011;58107;51.034;3.726;2022-09-14T15:44:10;14.33;;;8.23;;
70556;SDS011;58107;51.034;3.726;2022-09-14T15:46:38;13.30;;;8.85;;
70556;SDS011;58107;51.034;3.726;2022-09-14T15:49:07;11.53;;;8.15;;
70556;SDS011;58107;51.034;3.726;2022-09-14T15:51:36;10.78;;;8.23;;
70556;SDS011;58107;51.034;3.726;2022-09-14T15:54:04;10.45;;;8.50;;
70556;SDS011;58107;51.034;3.726;2022-09-14T15:56:31;10.88;;;8.03;;
70556;SDS011;58107;51.034;3.726;2022-09-14T15:58:59;10.93;;;8.48;;
70556;SDS011;58107;51.034;3.726;2022-09-14T16:01:29;11.48;;;8.70;;
70556;SDS011;58107;51.034;3.726;2022-09-14T16:04:01;10.88;;;8.55;;
70556;SDS011;58107;51.034;3.726;2022-09-14T16:06:30;10.35;;;9.23;;
70556;SDS011;58107;51.034;3.726;2022-09-14T16:08:59;11.85;;;10.28;;
70556;SDS011;58107;51.034;3.726;2022-09-14T16:11:29;14.07;;;10.43;;
70556;SDS011;58107;51.034;3.726;2022-09-14T16:13:57;13.90;;;11.12;;
70556;SDS011;58107;51.034;3.726;2022-09-14T16:16:25;14.87;;;11.65;;
70556;SDS011;58107;51.034;3.726;2022-09-14T16:18:53;13.50;;;11.25;;
70556;SDS011;58107;51.034;3.726;2022-09-14T16:21:23;17.52;;;12.88;;
70556;SDS011;58107;51.034;3.726;2022-09-14T16:23:56;18.23;;;11.05;;
70556;SDS011;58107;51.034;3.726;2022-09-14T16:26:24;12.23;;;9.83;;
70556;SDS011;58107;51.034;3.726;2022-09-14T16:28:55;15.28;;;11.10;;
70556;SDS011;58107;51.034;3.726;2022-09-14T16:31:25;16.93;;;11.40;;
70556;SDS011;58107;51.034;3.726;2022-09-14T16:33:56;14.50;;;11.05;;
70556;SDS011;58107;51.034;3.726;2022-09-14T16:36:27;13.10;;;11.05;;
70556;SDS011;58107;51.034;3.726;2022-09-14T16:38:57;14.65;;;11.22;;
70556;SDS011;58107;51.034;3.726;2022-09-14T16:41:27;13.98;;;11.33;;
70556;SDS011;58107;51.034;3.726;2022-09-14T16:43:57;15.38;;;11.80;;
70556;SDS011;58107;51.034;3.726;2022-09-14T16:46:27;19.00;;;12.30;;
70556;SDS011;58107;51.034;3.726;2022-09-14T16:48:56;18.62;;;12.78;;
70556;SDS011;58107;51.034;3.726;2022-09-14T16:51:25;18.23;;;12.80;;
70556;SDS011;58107;51.034;3.726;2022-09-14T16:53:56;18.17;;;14.65;;
70556;SDS011;58107;51.034;3.726;2022-09-14T16:56:26;18.73;;;12.07;;
70556;SDS011;58107;51.034;3.726;2022-09-14T16:58:56;18.80;;;14.63;;
70556;SDS011;58107;51.034;3.726;2022-09-14T17:01:28;21.02;;;15.70;;
70556;SDS011;58107;51.034;3.726;2022-09-14T17:03:58;21.60;;;15.98;;
70556;SDS011;58107;51.034;3.726;2022-09-14T17:06:30;22.62;;;16.35;;
70556;SDS011;58107;51.034;3.726;2022-09-14T17:08:59;19.20;;;15.40;;
70556;SDS011;58107;51.034;3.726;2022-09-14T17:11:30;18.40;;;14.90;;
70556;SDS011;58107;51.034;3.726;2022-09-14T17:13:59;20.12;;;15.50;;
70556;SDS011;58107;51.034;3.726;2022-09-14T17:16:27;18.92;;;14.70;;